Time;durP1;ratioP1;P1;durP2;ratioP2;P2;SDS_P1;SDS_P2;PMS_P1;PMS_P2;Temp;Humidity;BMP_temperature;BMP_pressure;BME280_temperature;BME280_humidity;BME280_pressure;Samples;Min_cycle;Max_cycle;Signal;HPM_P1;HPM_P2
2023/05/26 00:02:04;;;;;;;26.20;5.73;;;9.70;99.90;;;;;;4967683;28;20659;-53
2023/05/26 00:04:32;;;;;;;22.37;4.40;;;9.70;99.90;;;;;;4977344;28;20585;-54
2023/05/26 00:07:00;;;;;;;15.47;4.33;;;9.70;99.90;;;;;;4985528;28;20718;-54
2023/05/26 00:09:28;;;;;;;19.60;4.97;;;9.60;99.90;;;;;;4993553;28;20301;-53
2023/05/26 00:11:57;;;;;;;20.30;4.53;;;9.50;99.90;;;;;;4992061;28;20283;-53
2023/05/26 00:14:26;;;;;;;22.73;5.53;;;9.50;99.90;;;;;;4988284;28;20603;-53
2023/05/26 00:16:54;;;;;;;18.93;4.80;;;9.50;99.90;;;;;;4972722;28;20241;-54
2023/05/26 00:19:24;;;;;;;16.57;4.83;;;9.50;99.90;;;;;;4974215;28;20599;-53
2023/05/26 00:21:52;;;;;;;21.03;4.70;;;9.40;99.90;;;;;;4974017;28;20236;-53
2023/05/26 00:24:21;;;;;;;20.67;4.77;;;9.40;99.90;;;;;;4973949;28;20224;-53
2023/05/26 00:26:49;;;;;;;20.20;4.63;;;9.40;99.90;;;;;;4973886;28;20283;-54
2023/05/26 00:29:17;;;;;;;17.50;4.23;;;9.40;99.90;;;;;;4974024;28;20226;-52
2023/05/26 00:31:58;;;;;;;21.97;4.80;;;9.40;99.90;;;;;;4989740;28;20701;-53
2023/05/26 00:34:26;;;;;;;21.03;5.10;;;9.40;99.90;;;;;;4991251;28;20231;-53
2023/05/26 00:36:54;;;;;;;19.60;5.20;;;9.30;99.90;;;;;;4985144;28;20707;-53
2023/05/26 00:39:22;;;;;;;21.63;4.73;;;9.30;99.90;;;;;;4993305;28;20695;-54
2023/05/26 00:41:51;;;;;;;20.80;4.80;;;9.30;99.90;;;;;;4990109;28;20223;-54
2023/05/26 00:44:19;;;;;;;16.63;4.63;;;9.20;99.90;;;;;;4990721;28;20222;-54
2023/05/26 00:46:47;;;;;;;22.83;4.73;;;9.30;99.90;;;;;;4971373;28;20263;-53
2023/05/26 00:49:17;;;;;;;15.97;4.50;;;9.20;99.90;;;;;;4973801;28;20224;-52
2023/05/26 00:51:46;;;;;;;19.27;4.30;;;9.20;99.90;;;;;;4972288;28;20282;-53
2023/05/26 00:54:15;;;;;;;19.90;4.30;;;9.10;99.90;;;;;;4973608;28;20228;-54
2023/05/26 00:56:44;;;;;;;27.93;4.67;;;9.10;99.90;;;;;;4972179;28;20274;-54
2023/05/26 00:59:13;;;;;;;21.27;4.63;;;9.00;99.90;;;;;;4972493;28;20266;-54
2023/05/26 01:01:42;;;;;;;19.93;4.17;;;9.10;99.90;;;;;;4966035;28;20246;-53
2023/05/26 01:04:11;;;;;;;15.00;4.37;;;9.00;99.90;;;;;;4974026;28;20679;-53
2023/05/26 01:06:41;;;;;;;21.53;4.63;;;9.00;99.90;;;;;;4984318;28;20315;-53
2023/05/26 01:09:09;;;;;;;16.57;4.53;;;9.00;99.90;;;;;;4973869;28;20230;-55
2023/05/26 01:11:45;;;;;;;14.70;4.30;;;9.00;99.90;;;;;;4971916;28;20239;-53
2023/05/26 01:14:21;;;;;;;22.47;4.53;;;9.00;99.90;;;;;;4972950;28;20585;-54
2023/05/26 01:16:54;;;;;;;21.63;4.50;;;8.90;99.90;;;;;;4971899;28;20316;-53
2023/05/26 01:19:52;;;;;;;16.03;4.13;;;8.90;99.90;;;;;;4977419;28;20754;-54
2023/05/26 01:22:33;;;;;;;21.93;5.03;;;8.90;99.90;;;;;;4977177;28;20223;-53
2023/05/26 01:25:16;;;;;;;19.10;4.27;;;8.80;99.90;;;;;;4975703;28;20269;-53
2023/05/26 01:27:54;;;;;;;18.03;4.13;;;8.80;99.90;;;;;;4975777;28;20737;-54
2023/05/26 01:30:23;;;;;;;22.10;4.40;;;8.80;99.90;;;;;;4981093;28;20588;-53
2023/05/26 01:32:51;;;;;;;17.77;4.93;;;8.80;99.90;;;;;;4994517;28;20230;-53
2023/05/26 01:35:19;;;;;;;15.57;4.10;;;8.80;99.90;;;;;;4995317;28;20236;-54
2023/05/26 01:37:47;;;;;;;12.57;4.10;;;8.70;99.90;;;;;;4986845;28;20227;-54
2023/05/26 01:40:16;;;;;;;17.43;4.17;;;8.70;99.90;;;;;;4996419;28;20226;-53
2023/05/26 01:42:52;;;;;;;16.70;4.33;;;8.70;99.90;;;;;;4996251;28;20222;-53
2023/05/26 01:45:24;;;;;;;16.43;4.10;;;8.60;99.90;;;;;;4984773;28;20231;-53
2023/05/26 01:47:57;;;;;;;20.13;4.20;;;8.60;99.90;;;;;;4976606;28;20682;-54
2023/05/26 01:50:33;;;;;;;17.53;4.53;;;8.60;99.90;;;;;;4991666;28;20242;-53
2023/05/26 01:53:06;;;;;;;12.60;3.70;;;8.50;99.90;;;;;;4976580;28;20265;-52
2023/05/26 01:55:36;;;;;;;20.67;4.53;;;8.50;99.90;;;;;;4975246;28;20231;-53
2023/05/26 01:58:07;;;;;;;19.83;4.47;;;8.50;99.90;;;;;;4975444;28;20231;-52
2023/05/26 02:00:46;;;;;;;15.43;4.17;;;8.50;99.90;;;;;;4973313;28;20305;-51
2023/05/26 02:03:15;;;;;;;15.43;4.00;;;8.50;99.90;;;;;;4976609;28;20694;-53
2023/05/26 02:05:43;;;;;;;12.73;3.83;;;8.40;99.90;;;;;;4982880;28;20222;-54
2023/05/26 02:08:13;;;;;;;19.20;4.30;;;8.40;99.90;;;;;;5004263;28;20236;-52
2023/05/26 02:10:41;;;;;;;14.27;3.53;;;8.40;99.90;;;;;;4995672;28;20225;-52
2023/05/26 02:13:09;;;;;;;15.00;3.53;;;8.40;99.90;;;;;;4994406;28;20340;-52
2023/05/26 02:15:39;;;;;;;15.90;3.97;;;8.30;99.90;;;;;;4981505;28;20291;-54
2023/05/26 02:18:10;;;;;;;17.73;4.20;;;8.30;99.90;;;;;;5007918;23;20686;-58
2023/05/26 02:20:40;;;;;;;18.43;4.27;;;8.30;99.90;;;;;;5127470;23;20235;-57
2023/05/26 02:23:08;;;;;;;21.03;4.40;;;8.20;99.90;;;;;;4984839;28;20781;-58
2023/05/26 02:25:37;;;;;;;19.63;4.93;;;8.20;99.90;;;;;;4987577;28;20290;-58
2023/05/26 02:28:05;;;;;;;19.87;4.20;;;8.20;99.90;;;;;;4970726;28;20238;-58
2023/05/26 02:30:34;;;;;;;14.30;3.67;;;8.20;99.90;;;;;;4959938;28;20245;-56
2023/05/26 02:33:04;;;;;;;20.67;3.90;;;8.10;99.90;;;;;;4974733;28;20226;-57
2023/05/26 02:35:33;;;;;;;16.87;4.30;;;8.10;99.90;;;;;;4983152;28;20701;-57
2023/05/26 02:38:01;;;;;;;19.27;4.37;;;8.10;99.90;;;;;;4983795;28;20693;-57
2023/05/26 02:40:29;;;;;;;18.87;4.43;;;8.10;99.90;;;;;;4990658;28;20242;-57
2023/05/26 02:43:00;;;;;;;16.93;4.33;;;8.10;99.90;;;;;;4990807;28;20230;-57
2023/05/26 02:45:29;;;;;;;20.57;4.20;;;8.00;99.90;;;;;;4975367;28;20225;-57
2023/05/26 02:47:57;;;;;;;14.83;4.27;;;8.00;99.90;;;;;;4974482;28;20285;-57
2023/05/26 02:50:26;;;;;;;15.23;4.00;;;8.00;99.90;;;;;;4986355;28;20255;-56
2023/05/26 02:52:55;;;;;;;13.27;3.43;;;8.00;99.90;;;;;;4990862;28;20321;-58
2023/05/26 02:55:24;;;;;;;19.77;4.27;;;8.00;99.90;;;;;;4975571;28;20246;-57
2023/05/26 02:57:53;;;;;;;18.57;4.33;;;8.00;99.90;;;;;;4975547;28;20317;-58
2023/05/26 03:00:21;;;;;;;22.43;4.50;;;8.00;99.90;;;;;;4974847;28;20225;-57
2023/05/26 03:02:49;;;;;;;16.43;3.83;;;8.00;99.90;;;;;;4975270;28;20230;-57
2023/05/26 03:05:18;;;;;;;16.40;4.30;;;8.00;99.90;;;;;;4984584;28;20292;-57
2023/05/26 03:07:47;;;;;;;16.47;3.73;;;8.00;99.90;;;;;;4985221;28;20226;-58
2023/05/26 03:10:15;;;;;;;14.07;3.60;;;7.90;99.90;;;;;;4993507;28;20313;-57
2023/05/26 03:12:43;;;;;;;15.23;3.97;;;7.90;99.90;;;;;;4991455;28;20296;-58
2023/05/26 03:15:12;;;;;;;19.23;4.43;;;7.90;99.90;;;;;;4973556;28;20218;-57
2023/05/26 03:17:41;;;;;;;16.27;4.50;;;7.90;99.90;;;;;;4973789;28;20320;-58
2023/05/26 03:20:11;;;;;;;15.60;4.17;;;7.90;99.90;;;;;;4985682;28;20231;-58
2023/05/26 03:22:40;;;;;;;17.03;4.20;;;7.90;99.90;;;;;;4975193;28;20238;-57
2023/05/26 03:25:19;;;;;;;18.80;3.70;;;7.80;99.90;;;;;;4973904;28;20681;-57
2023/05/26 03:27:49;;;;;;;11.23;3.70;;;7.80;99.90;;;;;;4989753;28;20648;-57
2023/05/26 03:30:18;;;;;;;16.43;4.30;;;7.80;99.90;;;;;;4971889;28;20588;-57
2023/05/26 03:32:48;;;;;;;16.40;4.10;;;7.80;99.90;;;;;;4973513;28;20252;-58
2023/05/26 03:35:17;;;;;;;18.07;4.33;;;7.80;99.90;;;;;;4978077;28;20237;-57
2023/05/26 03:37:45;;;;;;;16.47;4.00;;;7.80;99.90;;;;;;4981337;28;20728;-58
2023/05/26 03:40:13;;;;;;;20.73;4.63;;;7.80;99.90;;;;;;4973171;28;20242;-58
2023/05/26 03:42:43;;;;;;;19.80;4.47;;;7.90;99.90;;;;;;4973293;28;20697;-58
2023/05/26 03:45:12;;;;;;;18.20;4.30;;;7.90;99.90;;;;;;4973084;28;20638;-57
2023/05/26 03:47:41;;;;;;;14.63;4.13;;;7.90;99.90;;;;;;4957229;28;20329;-57
2023/05/26 03:50:11;;;;;;;15.90;4.20;;;8.00;99.90;;;;;;4982548;28;20574;-57
2023/05/26 03:52:39;;;;;;;15.77;4.07;;;8.00;99.90;;;;;;4989369;28;20226;-57
2023/05/26 03:55:10;;;;;;;20.90;4.57;;;8.00;99.90;;;;;;4992672;28;20231;-57
2023/05/26 03:57:40;;;;;;;19.37;4.47;;;8.00;99.90;;;;;;5008781;28;20701;-55
2023/05/26 04:00:11;;;;;;;15.87;4.00;;;8.10;99.90;;;;;;4990248;28;20229;-57
2023/05/26 04:02:45;;;;;;;20.30;4.40;;;8.20;99.90;;;;;;4954709;28;20377;-56
2023/05/26 04:05:15;;;;;;;18.37;4.73;;;8.20;99.90;;;;;;4971562;28;20317;-57
2023/05/26 04:07:44;;;;;;;20.47;4.30;;;8.20;99.90;;;;;;4985373;28;20225;-58
2023/05/26 04:10:12;;;;;;;15.77;4.20;;;8.30;99.90;;;;;;4981023;28;20227;-57
2023/05/26 04:12:40;;;;;;;13.10;3.80;;;8.30;99.90;;;;;;4954784;28;20586;-58
2023/05/26 04:15:10;;;;;;;22.53;4.93;;;8.40;99.90;;;;;;4955260;28;20710;-57
2023/05/26 04:17:39;;;;;;;20.37;4.90;;;8.50;99.90;;;;;;4956177;28;20705;-58
2023/05/26 04:20:10;;;;;;;18.70;4.50;;;8.50;99.90;;;;;;4982891;28;20601;-58
2023/05/26 04:22:40;;;;;;;23.03;5.13;;;8.60;99.90;;;;;;5005295;28;20664;-58
2023/05/26 04:25:09;;;;;;;16.93;4.90;;;8.60;99.90;;;;;;4976724;28;20262;-58
2023/05/26 04:28:07;;;;;;;21.63;5.23;;;8.70;99.90;;;;;;4955038;28;20243;-58
2023/05/26 04:30:46;;;;;;;21.93;5.77;;;8.80;99.90;;;;;;4970936;28;20705;-58
2023/05/26 04:33:40;;;;;;;19.40;4.90;;;8.80;99.90;;;;;;4947103;28;20235;-58
2023/05/26 04:36:38;;;;;;;21.30;4.70;;;8.90;99.90;;;;;;4973434;28;20243;-58
2023/05/26 04:39:08;;;;;;;23.50;5.50;;;9.00;99.90;;;;;;4976358;28;20233;-52
2023/05/26 04:41:36;;;;;;;22.03;5.10;;;9.00;99.90;;;;;;4962101;28;20251;-52
2023/05/26 04:44:04;;;;;;;20.37;4.77;;;9.10;99.90;;;;;;4958362;28;20235;-52
2023/05/26 04:46:37;;;;;;;21.00;5.07;;;9.10;99.90;;;;;;4971785;28;20224;-51
2023/05/26 04:49:07;;;;;;;22.33;5.00;;;9.20;99.90;;;;;;4966662;28;20282;-52
2023/05/26 04:51:36;;;;;;;25.03;4.97;;;9.30;99.90;;;;;;4962451;28;20284;-53
2023/05/26 04:54:04;;;;;;;21.10;4.83;;;9.40;99.90;;;;;;4959074;28;20254;-51
2023/05/26 04:56:32;;;;;;;24.03;5.57;;;9.50;99.90;;;;;;4957019;28;20231;-52
2023/05/26 04:59:00;;;;;;;21.30;5.17;;;9.50;99.90;;;;;;4958177;28;21017;-53
2023/05/26 05:01:32;;;;;;;22.67;4.73;;;9.60;99.90;;;;;;4957654;28;20734;-52
2023/05/26 05:04:26;;;;;;;17.67;4.80;;;9.70;99.90;;;;;;4957439;28;20219;-55
2023/05/26 05:06:57;;;;;;;26.80;4.90;;;9.90;99.90;;;;;;4958867;28;20602;-53
2023/05/26 05:09:28;;;;;;;22.67;4.80;;;10.00;99.90;;;;;;4955863;28;20261;-54
2023/05/26 05:11:58;;;;;;;18.30;4.33;;;10.10;99.90;;;;;;4958049;28;20285;-53
2023/05/26 05:14:26;;;;;;;23.10;5.13;;;10.20;99.90;;;;;;4982966;28;20223;-53
2023/05/26 05:16:54;;;;;;;20.37;4.83;;;10.30;99.90;;;;;;4956767;28;20609;-54
2023/05/26 05:19:22;;;;;;;22.27;5.13;;;10.40;99.90;;;;;;4954913;28;20321;-55
2023/05/26 05:21:53;;;;;;;23.23;4.90;;;10.50;99.90;;;;;;4972144;28;20247;-55
2023/05/26 05:24:21;;;;;;;17.77;4.80;;;10.60;99.90;;;;;;4981470;28;20236;-55
2023/05/26 05:26:50;;;;;;;24.53;5.57;;;10.70;99.90;;;;;;4957317;28;21295;-53
2023/05/26 05:29:21;;;;;;;15.60;4.47;;;10.80;99.90;;;;;;4955684;28;21156;-53
2023/05/26 05:31:52;;;;;;;22.10;5.13;;;11.00;99.90;;;;;;4956269;28;20664;-55
2023/05/26 05:34:22;;;;;;;26.83;6.27;;;11.00;99.90;;;;;;4957938;28;20232;-53
2023/05/26 05:36:50;;;;;;;22.87;4.80;;;11.00;99.90;;;;;;4981030;28;20269;-52
2023/05/26 05:39:19;;;;;;;23.73;5.53;;;11.10;99.90;;;;;;4956972;28;20314;-53
2023/05/26 05:41:47;;;;;;;29.20;6.23;;;11.10;99.90;;;;;;4957117;28;20239;-55
2023/05/26 05:44:15;;;;;;;18.93;5.40;;;11.20;99.90;;;;;;4957786;28;20225;-55
2023/05/26 05:46:43;;;;;;;20.73;5.00;;;11.30;99.90;;;;;;4958475;28;20692;-53
2023/05/26 05:49:17;;;;;;;21.63;5.07;;;11.40;99.90;;;;;;4955379;28;20239;-54
2023/05/26 05:51:48;;;;;;;25.93;5.23;;;11.50;99.90;;;;;;4956693;28;20234;-52
2023/05/26 05:54:18;;;;;;;21.40;5.53;;;11.70;99.90;;;;;;4956642;28;20326;-54
2023/05/26 05:56:47;;;;;;;19.83;4.83;;;11.60;99.90;;;;;;4957239;28;20866;-55
2023/05/26 05:59:20;;;;;;;22.13;4.37;;;11.80;99.90;;;;;;4978443;28;20241;-53
2023/05/26 06:01:48;;;;;;;21.10;4.40;;;12.00;99.90;;;;;;4957592;28;20240;-54
2023/05/26 06:04:16;;;;;;;25.47;5.13;;;12.10;99.90;;;;;;4956820;28;20229;-55
2023/05/26 06:06:44;;;;;;;20.17;5.07;;;12.10;99.90;;;;;;4958497;28;20708;-55
2023/05/26 06:09:12;;;;;;;20.77;4.87;;;12.30;99.90;;;;;;4954262;28;20768;-53
2023/05/26 06:11:43;;;;;;;21.77;5.07;;;12.50;99.90;;;;;;4958013;28;20240;-54
2023/05/26 06:14:11;;;;;;;18.17;4.47;;;12.50;99.90;;;;;;4958846;28;20829;-53
2023/05/26 06:16:39;;;;;;;18.90;4.83;;;12.60;99.90;;;;;;4957244;28;20602;-53
2023/05/26 06:19:07;;;;;;;21.67;4.77;;;12.60;99.90;;;;;;4955309;28;20294;-55
2023/05/26 06:21:36;;;;;;;23.27;5.57;;;12.90;99.90;;;;;;4954831;28;20621;-53
2023/05/26 06:24:05;;;;;;;21.83;4.70;;;12.80;99.90;;;;;;4957491;28;20697;-52
2023/05/26 06:26:33;;;;;;;20.97;5.00;;;12.80;99.90;;;;;;4958454;28;20312;-54
2023/05/26 06:29:03;;;;;;;16.17;4.00;;;12.90;99.90;;;;;;4953218;28;20674;-53
2023/05/26 06:31:31;;;;;;;14.33;4.23;;;13.20;99.90;;;;;;4955229;28;20234;-56
2023/05/26 06:34:10;;;;;;;18.77;4.63;;;13.20;99.90;;;;;;4957785;28;20649;-57
2023/05/26 06:36:39;;;;;;;21.83;4.87;;;13.40;99.90;;;;;;4957229;28;20330;-56
2023/05/26 06:39:07;;;;;;;20.43;4.03;;;13.50;99.90;;;;;;4980179;28;20824;-57
2023/05/26 06:41:35;;;;;;;14.63;4.30;;;13.60;99.90;;;;;;4959998;28;20296;-57
2023/05/26 06:44:06;;;;;;;14.13;4.13;;;13.70;99.90;;;;;;4959817;28;20250;-57
2023/05/26 06:46:34;;;;;;;21.30;4.40;;;14.00;99.90;;;;;;4961306;28;20232;-55
2023/05/26 06:49:03;;;;;;;15.80;3.73;;;13.90;99.90;;;;;;4959227;28;20605;-57
2023/05/26 06:51:49;;;;;;;17.60;4.10;;;13.60;99.90;;;;;;4959407;28;20226;-57
2023/05/26 06:54:17;;;;;;;17.10;3.83;;;13.60;99.90;;;;;;4976623;28;20253;-56
2023/05/26 06:56:45;;;;;;;13.13;3.67;;;13.70;99.90;;;;;;4955041;28;20306;-57
2023/05/26 06:59:16;;;;;;;14.03;4.50;;;14.00;99.90;;;;;;4952974;28;20226;-57
2023/05/26 07:01:45;;;;;;;16.37;3.73;;;14.30;99.90;;;;;;4956269;28;20734;-57
2023/05/26 07:04:13;;;;;;;17.70;4.00;;;14.60;99.90;;;;;;4956661;28;20246;-57
2023/05/26 07:06:43;;;;;;;15.60;4.00;;;14.60;99.90;;;;;;4978976;28;20629;-57
2023/05/26 07:09:19;;;;;;;17.40;3.50;;;14.30;99.90;;;;;;4953024;28;20244;-57
2023/05/26 07:11:52;;;;;;;15.60;3.97;;;14.40;99.90;;;;;;4956621;28;20802;-57
2023/05/26 07:15:00;;;;;;;13.53;3.50;;;14.30;99.90;;;;;;4918433;29;20242;-56
2023/05/26 07:17:28;;;;;;;22.03;3.77;;;14.20;99.90;;;;;;4901288;29;20231;-57
2023/05/26 07:19:56;;;;;;;12.13;3.27;;;14.10;99.90;;;;;;4938211;28;20296;-56
2023/05/26 07:22:24;;;;;;;17.07;4.10;;;14.00;99.90;;;;;;4957573;28;21088;-55
2023/05/26 07:25:06;;;;;;;17.63;3.73;;;14.30;99.90;;;;;;4955678;28;20241;-57
2023/05/26 07:27:42;;;;;;;16.37;4.60;;;14.80;99.90;;;;;;4955188;28;20777;-55
2023/05/26 07:30:13;;;;;;;15.90;3.90;;;14.60;99.90;;;;;;4958498;28;20248;-56
2023/05/26 07:32:56;;;;;;;13.83;3.70;;;14.70;99.90;;;;;;4958896;28;20262;-56
2023/05/26 07:35:24;;;;;;;15.63;3.80;;;14.70;99.90;;;;;;4957293;28;20234;-56
2023/05/26 07:37:53;;;;;;;13.60;3.80;;;15.00;99.90;;;;;;4953021;28;20225;-57
2023/05/26 07:40:21;;;;;;;12.47;3.57;;;15.30;99.90;;;;;;4956311;28;20238;-57
2023/05/26 07:42:49;;;;;;;14.43;3.67;;;15.30;99.90;;;;;;4956109;28;20227;-57
2023/05/26 07:45:19;;;;;;;15.33;3.50;;;15.40;99.90;;;;;;4956977;28;20242;-57
2023/05/26 07:47:47;;;;;;;18.30;4.17;;;15.20;99.90;;;;;;4959442;28;20245;-56
2023/05/26 07:50:15;;;;;;;18.40;3.70;;;14.80;99.90;;;;;;4960658;28;20712;-57
2023/05/26 07:52:43;;;;;;;16.10;4.10;;;14.30;99.90;;;;;;4958929;28;20839;-56
2023/05/26 07:55:11;;;;;;;16.57;3.97;;;14.00;99.90;;;;;;4956636;28;20230;-55
2023/05/26 07:57:39;;;;;;;13.30;3.50;;;14.10;99.90;;;;;;4956043;28;20716;-56
2023/05/26 08:00:08;;;;;;;14.43;3.90;;;14.50;99.90;;;;;;4954643;28;20226;-57
2023/05/26 08:02:44;;;;;;;12.90;3.57;;;14.60;99.90;;;;;;4955001;28;20666;-57
2023/05/26 08:05:12;;;;;;;16.87;3.90;;;14.40;99.90;;;;;;4959300;28;20656;-57
2023/05/26 08:07:40;;;;;;;17.00;3.93;;;14.20;99.90;;;;;;4957978;28;20237;-57
2023/05/26 08:10:09;;;;;;;16.60;4.03;;;14.10;99.90;;;;;;4959632;28;20748;-56
2023/05/26 08:12:37;;;;;;;15.53;3.97;;;14.50;99.90;;;;;;4959510;28;20227;-56
2023/05/26 08:15:13;;;;;;;13.13;3.20;;;14.70;99.90;;;;;;4960092;28;20716;-56
2023/05/26 08:17:42;;;;;;;12.60;3.37;;;15.10;99.90;;;;;;4959237;28;21023;-55
2023/05/26 08:20:11;;;;;;;15.93;4.17;;;15.60;99.90;;;;;;4974275;28;20222;-57
2023/05/26 08:22:39;;;;;;;16.30;3.63;;;16.10;99.90;;;;;;4959261;28;20235;-56
2023/05/26 08:25:08;;;;;;;12.13;3.53;;;16.50;99.90;;;;;;4960295;28;20594;-56
2023/05/26 08:27:36;;;;;;;11.80;4.10;;;16.80;99.90;;;;;;4959541;28;20708;-57
2023/05/26 08:30:05;;;;;;;15.03;4.30;;;16.90;99.90;;;;;;4958814;28;20237;-56
2023/05/26 08:32:34;;;;;;;17.60;4.20;;;16.60;99.90;;;;;;4958873;28;20699;-56
2023/05/26 08:35:04;;;;;;;16.30;4.20;;;16.40;99.90;;;;;;4958873;28;20230;-56
2023/05/26 08:37:32;;;;;;;17.67;4.20;;;15.80;99.90;;;;;;4958643;28;20289;-57
2023/05/26 08:40:02;;;;;;;14.73;3.93;;;15.90;99.90;;;;;;4958021;28;20227;-56
2023/05/26 08:42:34;;;;;;;13.43;3.90;;;16.40;99.90;;;;;;4958869;28;20249;-57
2023/05/26 08:45:03;;;;;;;13.53;3.87;;;16.80;99.90;;;;;;4958461;28;20227;-57
2023/05/26 08:47:35;;;;;;;16.43;4.30;;;17.70;99.90;;;;;;4958838;28;20644;-56
2023/05/26 08:50:06;;;;;;;13.97;3.80;;;18.10;99.90;;;;;;4958174;28;20235;-57
2023/05/26 08:52:34;;;;;;;12.93;4.07;;;18.20;99.90;;;;;;4958441;28;20302;-56
2023/05/26 08:55:02;;;;;;;15.50;4.60;;;18.00;99.90;;;;;;4958400;28;20234;-55
2023/05/26 08:57:31;;;;;;;16.17;3.87;;;17.20;99.90;;;;;;4958842;28;20237;-54
2023/05/26 08:59:59;;;;;;;13.83;4.00;;;16.80;99.90;;;;;;4957550;28;20976;-56
2023/05/26 09:02:27;;;;;;;13.67;3.97;;;16.70;99.90;;;;;;4958238;28;20317;-55
2023/05/26 09:04:55;;;;;;;12.47;4.07;;;17.30;99.90;;;;;;4958673;28;20720;-56
2023/05/26 09:07:25;;;;;;;14.23;3.80;;;17.90;99.90;;;;;;4958770;28;20606;-55
2023/05/26 09:10:03;;;;;;;15.00;3.90;;;17.90;99.90;;;;;;4958464;28;20237;-56
2023/05/26 09:12:36;;;;;;;12.53;3.83;;;17.70;99.90;;;;;;4959170;28;20839;-56
2023/05/26 09:15:05;;;;;;;17.13;3.93;;;17.60;99.90;;;;;;4958504;28;20314;-57
2023/05/26 09:17:36;;;;;;;14.93;4.00;;;17.20;99.90;;;;;;4956535;28;20231;-55
2023/05/26 09:20:06;;;;;;;12.87;4.07;;;16.70;99.90;;;;;;4957145;28;20238;-56
2023/05/26 09:22:36;;;;;;;15.60;4.33;;;16.40;99.90;;;;;;4958585;28;20223;-56
2023/05/26 09:25:04;;;;;;;15.23;4.30;;;16.60;99.90;;;;;;4958175;28;20230;-54
2023/05/26 09:27:32;;;;;;;13.27;3.83;;;16.80;99.90;;;;;;4958616;28;20226;-56
2023/05/26 09:30:01;;;;;;;12.63;4.03;;;16.80;99.90;;;;;;4955906;28;20238;-57
2023/05/26 09:32:30;;;;;;;17.17;4.07;;;16.90;99.90;;;;;;4956871;28;20590;-56
2023/05/26 09:35:00;;;;;;;12.87;4.40;;;16.80;99.90;;;;;;4959250;28;20308;-57
2023/05/26 09:37:31;;;;;;;15.17;3.90;;;17.10;99.90;;;;;;4959428;28;21029;-55
2023/05/26 09:40:09;;;;;;;17.13;4.10;;;18.00;99.90;;;;;;4961397;28;20717;-56
2023/05/26 09:42:38;;;;;;;9.73;3.70;;;18.10;99.90;;;;;;4961735;28;20257;-57
2023/05/26 09:45:07;;;;;;;16.20;4.13;;;17.80;99.90;;;;;;4962408;28;20306;-56
2023/05/26 09:47:35;;;;;;;11.13;3.70;;;17.40;99.90;;;;;;4961687;28;20223;-56
2023/05/26 09:50:04;;;;;;;13.53;4.07;;;17.50;99.90;;;;;;4961648;28;20648;-55
2023/05/26 09:52:36;;;;;;;18.80;4.73;;;18.20;99.90;;;;;;4961951;28;20339;-57
2023/05/26 09:55:05;;;;;;;15.80;4.00;;;18.50;99.90;;;;;;4961680;28;20226;-56
2023/05/26 09:57:36;;;;;;;11.90;3.70;;;18.70;99.90;;;;;;4961941;28;20233;-57
2023/05/26 10:00:09;;;;;;;14.87;3.73;;;18.50;99.90;;;;;;4961303;28;20259;-57
2023/05/26 10:02:38;;;;;;;11.27;3.87;;;18.60;99.90;;;;;;4961032;28;20247;-57
2023/05/26 10:05:07;;;;;;;12.47;4.40;;;18.50;99.90;;;;;;4961478;28;20228;-57
2023/05/26 10:07:37;;;;;;;12.07;4.13;;;18.30;99.90;;;;;;4961437;28;20610;-57
2023/05/26 10:10:06;;;;;;;13.50;3.57;;;18.90;99.90;;;;;;4960579;28;20805;-57
2023/05/26 10:12:36;;;;;;;12.97;4.07;;;18.60;99.90;;;;;;4961377;28;20239;-57
2023/05/26 10:15:05;;;;;;;17.47;4.43;;;18.40;99.90;;;;;;4962036;28;20239;-57
2023/05/26 10:17:33;;;;;;;11.53;3.87;;;18.30;99.90;;;;;;4961469;28;20233;-57
2023/05/26 10:20:03;;;;;;;14.57;3.80;;;17.90;99.90;;;;;;4957422;28;20243;-56
2023/05/26 10:22:34;;;;;;;14.30;4.03;;;18.20;99.90;;;;;;4958594;28;20269;-56
2023/05/26 10:25:07;;;;;;;13.43;4.20;;;18.70;99.90;;;;;;4958600;28;20231;-56
2023/05/26 10:27:44;;;;;;;15.50;4.37;;;18.80;99.90;;;;;;4958542;28;20232;-56
2023/05/26 10:30:16;;;;;;;18.70;5.53;;;18.40;99.90;;;;;;4958401;28;20243;-54
2023/05/26 10:32:46;;;;;;;12.10;4.30;;;17.90;99.90;;;;;;4961136;28;20255;-57
2023/05/26 10:35:28;;;;;;;15.23;4.73;;;17.70;99.90;;;;;;4961157;28;20236;-56
2023/05/26 10:38:10;;;;;;;12.80;4.20;;;17.30;99.90;;;;;;4960804;28;20307;-57
2023/05/26 10:40:42;;;;;;;12.47;4.07;;;17.40;99.90;;;;;;4961698;28;20345;-57
2023/05/26 10:43:19;;;;;;;10.70;4.00;;;17.50;99.90;;;;;;4959065;28;20241;-57
2023/05/26 10:45:51;;;;;;;15.20;5.00;;;17.70;99.90;;;;;;4958092;28;20853;-56
2023/05/26 10:48:19;;;;;;;15.57;4.73;;;17.90;99.90;;;;;;4953660;28;20232;-55
2023/05/26 10:51:06;;;;;;;12.77;4.37;;;17.90;99.90;;;;;;4956145;28;20233;-54
2023/05/26 10:53:36;;;;;;;14.87;5.40;;;17.80;99.90;;;;;;4957706;28;20248;-55
2023/05/26 10:56:08;;;;;;;13.10;4.93;;;18.30;99.90;;;;;;4958671;28;20247;-57
2023/05/26 10:58:38;;;;;;;14.93;5.03;;;18.20;99.90;;;;;;4952048;28;20237;-57
2023/05/26 11:01:11;;;;;;;12.83;4.77;;;17.60;99.90;;;;;;4955395;28;20242;-56
2023/05/26 11:03:42;;;;;;;16.80;4.90;;;17.20;99.90;;;;;;4957838;28;20240;-56
2023/05/26 11:06:15;;;;;;;14.13;5.00;;;17.10;99.90;;;;;;4957281;28;20293;-58
2023/05/26 11:08:46;;;;;;;12.73;4.60;;;17.10;99.90;;;;;;4953023;28;21031;-58
2023/05/26 11:11:27;;;;;;;15.63;5.10;;;17.20;99.90;;;;;;4961483;28;20237;-58
2023/05/26 11:14:05;;;;;;;17.17;4.77;;;17.50;99.90;;;;;;4960326;28;20325;-55
2023/05/26 11:16:35;;;;;;;14.30;4.70;;;17.70;99.90;;;;;;4958022;28;20242;-53
2023/05/26 11:19:05;;;;;;;13.93;4.50;;;17.70;99.90;;;;;;4959561;28;20691;-57
2023/05/26 11:21:35;;;;;;;13.90;4.30;;;17.40;99.90;;;;;;4960276;28;20245;-57
2023/05/26 11:24:04;;;;;;;9.53;3.80;;;17.40;99.90;;;;;;4961008;28;20237;-53
2023/05/26 11:26:34;;;;;;;13.73;4.93;;;17.30;99.90;;;;;;4959880;28;20248;-58
2023/05/26 11:29:05;;;;;;;11.27;4.20;;;17.90;99.90;;;;;;4974980;28;20244;-57
2023/05/26 11:31:33;;;;;;;10.33;4.00;;;18.50;99.90;;;;;;4975290;28;20603;-55
2023/05/26 11:34:01;;;;;;;12.20;3.80;;;18.40;99.90;;;;;;4961251;28;20358;-59
2023/05/26 11:36:30;;;;;;;11.20;3.50;;;18.10;99.90;;;;;;4960461;28;20691;-58
2023/05/26 11:39:00;;;;;;;10.40;3.67;;;18.40;99.90;;;;;;4959103;28;20247;-57
2023/05/26 11:41:29;;;;;;;13.33;3.87;;;18.40;99.90;;;;;;4959924;28;20240;-58
2023/05/26 11:43:58;;;;;;;14.70;3.83;;;18.20;99.90;;;;;;4959402;28;20236;-57
2023/05/26 11:46:30;;;;;;;11.57;3.73;;;18.10;99.90;;;;;;4958781;28;21721;-59
2023/05/26 11:49:00;;;;;;;12.77;3.70;;;17.80;99.90;;;;;;4957311;28;20375;-56
2023/05/26 11:51:28;;;;;;;14.30;4.17;;;17.60;99.90;;;;;;4959147;28;20757;-56
2023/05/26 11:53:58;;;;;;;13.50;4.27;;;17.50;99.90;;;;;;4958434;28;20222;-58
2023/05/26 11:56:33;;;;;;;11.10;3.43;;;17.70;99.90;;;;;;4955758;28;20847;-57
2023/05/26 11:59:01;;;;;;;10.80;3.77;;;17.70;99.90;;;;;;4949020;28;20602;-57
2023/05/26 12:01:32;;;;;;;11.33;3.97;;;17.60;99.90;;;;;;4951830;28;20271;-54
2023/05/26 12:04:01;;;;;;;13.53;3.73;;;17.50;99.90;;;;;;4955692;28;20235;-56
2023/05/26 12:06:30;;;;;;;10.80;3.70;;;17.60;99.90;;;;;;4956763;28;20245;-58
2023/05/26 12:09:02;;;;;;;17.13;4.47;;;17.70;99.90;;;;;;4952115;28;20256;-59
2023/05/26 12:11:35;;;;;;;12.53;4.23;;;17.70;99.90;;;;;;4956039;28;20342;-59
2023/05/26 12:14:05;;;;;;;16.93;4.00;;;17.70;99.90;;;;;;4956114;28;20231;-57
2023/05/26 12:16:36;;;;;;;10.40;3.87;;;17.80;99.90;;;;;;4958463;28;20240;-56
2023/05/26 12:19:05;;;;;;;12.87;4.27;;;17.80;99.90;;;;;;4957447;28;20238;-55
2023/05/26 12:21:40;;;;;;;12.57;4.07;;;17.50;99.90;;;;;;4955078;28;20244;-56
2023/05/26 12:24:09;;;;;;;16.00;4.40;;;17.30;99.90;;;;;;4956638;28;20238;-59
2023/05/26 12:26:37;;;;;;;16.83;4.50;;;17.40;99.90;;;;;;4955142;28;20309;-58
2023/05/26 12:29:10;;;;;;;16.57;4.23;;;17.00;99.90;;;;;;4952907;28;20303;-58
2023/05/26 12:31:42;;;;;;;15.33;4.10;;;16.90;99.90;;;;;;4955218;28;20235;-57
2023/05/26 12:34:11;;;;;;;14.97;4.17;;;16.90;99.90;;;;;;4956104;28;20726;-57
2023/05/26 12:36:39;;;;;;;12.90;3.90;;;17.10;99.90;;;;;;4954571;28;20599;-54
2023/05/26 12:39:10;;;;;;;17.03;5.10;;;16.90;99.90;;;;;;4951246;28;20289;-58
2023/05/26 12:41:40;;;;;;;17.50;4.90;;;16.80;99.90;;;;;;4954590;28;20602;-57
2023/05/26 12:44:08;;;;;;;19.30;4.10;;;16.80;99.90;;;;;;4955502;28;20259;-57
2023/05/26 12:46:36;;;;;;;15.03;4.43;;;16.80;99.90;;;;;;4959603;28;20231;-58
2023/05/26 12:49:07;;;;;;;13.87;4.60;;;16.80;99.90;;;;;;4959075;28;20227;-54
2023/05/26 12:51:38;;;;;;;14.53;4.03;;;16.80;99.90;;;;;;4959546;28;20228;-58
2023/05/26 12:54:06;;;;;;;13.87;3.90;;;17.00;99.90;;;;;;4959540;28;20575;-58
2023/05/26 12:56:35;;;;;;;12.67;3.97;;;17.00;99.90;;;;;;4956818;28;20309;-57
2023/05/26 12:59:04;;;;;;;14.43;4.80;;;17.00;99.90;;;;;;4950316;28;20243;-57